sensor_id;sensor_type;location;lat;lon;timestamp;P1;durP1;ratioP1;P2;durP2;ratioP2
2061;SDS011;11070;51.336;12.340;2023-05-13T00:01:41;15.60;;;13.97;;
2061;SDS011;11070;51.336;12.340;2023-05-13T00:04:07;14.23;;;12.73;;
2061;SDS011;11070;51.336;12.340;2023-05-13T00:06:33;13.65;;;12.25;;
2061;SDS011;11070;51.336;12.340;2023-05-13T00:09:00;15.45;;;13.20;;
2061;SDS011;11070;51.336;12.340;2023-05-13T00:11:25;14.53;;;12.93;;
2061;SDS011;11070;51.336;12.340;2023-05-13T00:13:51;14.50;;;13.00;;
2061;SDS011;11070;51.336;12.340;2023-05-13T00:16:17;14.77;;;13.33;;
2061;SDS011;11070;51.336;12.340;2023-05-13T00:18:43;15.07;;;13.00;;
2061;SDS011;11070;51.336;12.340;2023-05-13T00:21:09;14.03;;;12.60;;
2061;SDS011;11070;51.336;12.340;2023-05-13T00:23:35;14.93;;;13.43;;
2061;SDS011;11070;51.336;12.340;2023-05-13T00:26:00;15.93;;;14.33;;
2061;SDS011;11070;51.336;12.340;2023-05-13T00:28:26;15.13;;;13.70;;
2061;SDS011;11070;51.336;12.340;2023-05-13T00:30:52;15.00;;;12.90;;
2061;SDS011;11070;51.336;12.340;2023-05-13T00:33:17;14.53;;;13.17;;
2061;SDS011;11070;51.336;12.340;2023-05-13T00:35:43;16.20;;;14.70;;
2061;SDS011;11070;51.336;12.340;2023-05-13T00:38:09;14.90;;;13.40;;
2061;SDS011;11070;51.336;12.340;2023-05-13T00:40:36;15.30;;;13.53;;
2061;SDS011;11070;51.336;12.340;2023-05-13T00:43:03;14.73;;;13.07;;
2061;SDS011;11070;51.336;12.340;2023-05-13T00:45:30;15.60;;;14.07;;
2061;SDS011;11070;51.336;12.340;2023-05-13T00:47:56;15.32;;;13.73;;
2061;SDS011;11070;51.336;12.340;2023-05-13T00:50:23;15.32;;;13.82;;
2061;SDS011;11070;51.336;12.340;2023-05-13T00:52:49;17.70;;;13.43;;
2061;SDS011;11070;51.336;12.340;2023-05-13T00:55:15;15.10;;;13.60;;
2061;SDS011;11070;51.336;12.340;2023-05-13T00:57:41;16.30;;;14.65;;
2061;SDS011;11070;51.336;12.340;2023-05-13T01:00:07;15.27;;;13.77;;
2061;SDS011;11070;51.336;12.340;2023-05-13T01:05:21;15.65;;;14.25;;
2061;SDS011;11070;51.336;12.340;2023-05-13T01:08:12;15.63;;;13.40;;
2061;SDS011;11070;51.336;12.340;2023-05-13T01:13:22;15.68;;;13.93;;
2061;SDS011;11070;51.336;12.340;2023-05-13T01:16:10;15.98;;;14.38;;
2061;SDS011;11070;51.336;12.340;2023-05-13T01:18:43;16.08;;;14.45;;
2061;SDS011;11070;51.336;12.340;2023-05-13T01:21:12;15.25;;;13.73;;
2061;SDS011;11070;51.336;12.340;2023-05-13T01:23:38;15.17;;;13.67;;
2061;SDS011;11070;51.336;12.340;2023-05-13T01:26:04;14.90;;;13.40;;
2061;SDS011;11070;51.336;12.340;2023-05-13T01:28:30;15.03;;;13.63;;
2061;SDS011;11070;51.336;12.340;2023-05-13T01:30:56;26.17;;;14.00;;
2061;SDS011;11070;51.336;12.340;2023-05-13T01:33:22;16.15;;;14.55;;
2061;SDS011;11070;51.336;12.340;2023-05-13T01:35:48;14.40;;;13.10;;
2061;SDS011;11070;51.336;12.340;2023-05-13T01:38:16;15.23;;;13.73;;
2061;SDS011;11070;51.336;12.340;2023-05-13T01:40:42;16.15;;;14.48;;
2061;SDS011;11070;51.336;12.340;2023-05-13T01:43:08;16.45;;;14.82;;
2061;SDS011;11070;51.336;12.340;2023-05-13T01:45:34;16.67;;;15.07;;
2061;SDS011;11070;51.336;12.340;2023-05-13T01:48:00;16.25;;;14.75;;
2061;SDS011;11070;51.336;12.340;2023-05-13T01:50:26;18.70;;;16.70;;
2061;SDS011;11070;51.336;12.340;2023-05-13T01:52:52;16.07;;;14.50;;
2061;SDS011;11070;51.336;12.340;2023-05-13T01:55:17;16.67;;;14.93;;
2061;SDS011;11070;51.336;12.340;2023-05-13T01:57:43;18.53;;;15.07;;
2061;SDS011;11070;51.336;12.340;2023-05-13T02:00:09;17.47;;;15.67;;
2061;SDS011;11070;51.336;12.340;2023-05-13T02:02:35;16.83;;;14.75;;
2061;SDS011;11070;51.336;12.340;2023-05-13T02:05:01;16.50;;;14.90;;
2061;SDS011;11070;51.336;12.340;2023-05-13T02:07:26;15.40;;;13.90;;
2061;SDS011;11070;51.336;12.340;2023-05-13T02:09:52;16.93;;;14.50;;
2061;SDS011;11070;51.336;12.340;2023-05-13T02:12:23;17.13;;;15.25;;
2061;SDS011;11070;51.336;12.340;2023-05-13T02:14:50;16.48;;;14.90;;
2061;SDS011;11070;51.336;12.340;2023-05-13T02:17:16;16.30;;;14.70;;
2061;SDS011;11070;51.336;12.340;2023-05-13T02:19:42;16.63;;;14.93;;
2061;SDS011;11070;51.336;12.340;2023-05-13T02:22:07;16.03;;;14.40;;
2061;SDS011;11070;51.336;12.340;2023-05-13T02:24:33;15.93;;;14.43;;
2061;SDS011;11070;51.336;12.340;2023-05-13T02:27:00;17.33;;;15.45;;
2061;SDS011;11070;51.336;12.340;2023-05-13T02:29:26;16.10;;;14.40;;
2061;SDS011;11070;51.336;12.340;2023-05-13T02:31:52;15.77;;;14.13;;
2061;SDS011;11070;51.336;12.340;2023-05-13T02:34:17;16.07;;;14.47;;
2061;SDS011;11070;51.336;12.340;2023-05-13T02:36:43;16.43;;;14.83;;
2061;SDS011;11070;51.336;12.340;2023-05-13T02:39:09;16.30;;;14.70;;
2061;SDS011;11070;51.336;12.340;2023-05-13T02:41:35;15.00;;;13.40;;
2061;SDS011;11070;51.336;12.340;2023-05-13T02:44:01;16.48;;;14.88;;
2061;SDS011;11070;51.336;12.340;2023-05-13T02:46:26;16.50;;;14.80;;
2061;SDS011;11070;51.336;12.340;2023-05-13T02:48:52;14.80;;;13.30;;
2061;SDS011;11070;51.336;12.340;2023-05-13T02:51:18;15.10;;;13.50;;
2061;SDS011;11070;51.336;12.340;2023-05-13T02:53:43;16.70;;;14.00;;
2061;SDS011;11070;51.336;12.340;2023-05-13T02:56:09;15.33;;;13.83;;
2061;SDS011;11070;51.336;12.340;2023-05-13T02:58:35;16.10;;;14.60;;
2061;SDS011;11070;51.336;12.340;2023-05-13T03:01:00;15.97;;;14.47;;
2061;SDS011;11070;51.336;12.340;2023-05-13T03:03:26;17.53;;;15.10;;
2061;SDS011;11070;51.336;12.340;2023-05-13T03:05:52;16.05;;;14.35;;
2061;SDS011;11070;51.336;12.340;2023-05-13T03:08:18;19.57;;;15.50;;
2061;SDS011;11070;51.336;12.340;2023-05-13T03:10:44;17.03;;;15.27;;
2061;SDS011;11070;51.336;12.340;2023-05-13T03:13:09;17.40;;;15.60;;
2061;SDS011;11070;51.336;12.340;2023-05-13T03:15:35;16.87;;;15.17;;
2061;SDS011;11070;51.336;12.340;2023-05-13T03:18:01;16.20;;;14.57;;
2061;SDS011;11070;51.336;12.340;2023-05-13T03:20:26;18.80;;;14.77;;
2061;SDS011;11070;51.336;12.340;2023-05-13T03:22:52;16.50;;;14.90;;
2061;SDS011;11070;51.336;12.340;2023-05-13T03:25:17;17.80;;;16.00;;
2061;SDS011;11070;51.336;12.340;2023-05-13T03:27:43;17.50;;;15.17;;
2061;SDS011;11070;51.336;12.340;2023-05-13T03:30:09;18.60;;;15.03;;
2061;SDS011;11070;51.336;12.340;2023-05-13T03:32:35;17.20;;;14.60;;
2061;SDS011;11070;51.336;12.340;2023-05-13T03:35:01;16.90;;;14.33;;
2061;SDS011;11070;51.336;12.340;2023-05-13T03:37:26;16.90;;;15.07;;
2061;SDS011;11070;51.336;12.340;2023-05-13T03:39:52;17.30;;;15.00;;
2061;SDS011;11070;51.336;12.340;2023-05-13T03:42:18;16.70;;;15.00;;
2061;SDS011;11070;51.336;12.340;2023-05-13T03:44:44;19.90;;;16.90;;
2061;SDS011;11070;51.336;12.340;2023-05-13T03:47:10;17.53;;;15.73;;
2061;SDS011;11070;51.336;12.340;2023-05-13T03:49:36;17.60;;;15.90;;
2061;SDS011;11070;51.336;12.340;2023-05-13T03:52:01;16.97;;;15.37;;
2061;SDS011;11070;51.336;12.340;2023-05-13T03:54:27;17.53;;;15.70;;
2061;SDS011;11070;51.336;12.340;2023-05-13T03:56:53;19.60;;;15.93;;
2061;SDS011;11070;51.336;12.340;2023-05-13T03:59:18;18.10;;;15.80;;
2061;SDS011;11070;51.336;12.340;2023-05-13T04:01:44;18.07;;;16.10;;
2061;SDS011;11070;51.336;12.340;2023-05-13T04:04:10;19.30;;;17.20;;
2061;SDS011;11070;51.336;12.340;2023-05-13T04:06:35;18.03;;;16.20;;
2061;SDS011;11070;51.336;12.340;2023-05-13T04:09:01;19.17;;;17.10;;
2061;SDS011;11070;51.336;12.340;2023-05-13T04:11:28;18.98;;;17.08;;
2061;SDS011;11070;51.336;12.340;2023-05-13T04:13:55;20.98;;;16.77;;
2061;SDS011;11070;51.336;12.340;2023-05-13T04:16:21;18.75;;;16.27;;
2061;SDS011;11070;51.336;12.340;2023-05-13T04:18:47;17.73;;;15.93;;
2061;SDS011;11070;51.336;12.340;2023-05-13T04:21:13;17.60;;;14.90;;
2061;SDS011;11070;51.336;12.340;2023-05-13T04:23:38;17.37;;;15.57;;
2061;SDS011;11070;51.336;12.340;2023-05-13T04:26:04;19.70;;;16.50;;
2061;SDS011;11070;51.336;12.340;2023-05-13T04:28:30;17.27;;;15.43;;
2061;SDS011;11070;51.336;12.340;2023-05-13T04:30:55;17.00;;;15.20;;
2061;SDS011;11070;51.336;12.340;2023-05-13T04:33:21;17.63;;;15.90;;
2061;SDS011;11070;51.336;12.340;2023-05-13T04:35:47;16.83;;;15.13;;
2061;SDS011;11070;51.336;12.340;2023-05-13T04:38:12;20.97;;;15.63;;
2061;SDS011;11070;51.336;12.340;2023-05-13T04:40:38;17.43;;;15.07;;
2061;SDS011;11070;51.336;12.340;2023-05-13T04:43:04;16.23;;;14.53;;
2061;SDS011;11070;51.336;12.340;2023-05-13T04:45:30;17.77;;;15.63;;
2061;SDS011;11070;51.336;12.340;2023-05-13T04:47:56;16.70;;;15.00;;
2061;SDS011;11070;51.336;12.340;2023-05-13T04:50:21;19.05;;;14.82;;
2061;SDS011;11070;51.336;12.340;2023-05-13T04:52:47;15.70;;;14.20;;
2061;SDS011;11070;51.336;12.340;2023-05-13T04:55:13;17.50;;;14.00;;
2061;SDS011;11070;51.336;12.340;2023-05-13T04:57:39;16.53;;;14.07;;
2061;SDS011;11070;51.336;12.340;2023-05-13T05:00:05;17.60;;;14.57;;
2061;SDS011;11070;51.336;12.340;2023-05-13T05:02:33;20.67;;;15.10;;
2061;SDS011;11070;51.336;12.340;2023-05-13T05:04:59;16.30;;;14.80;;
2061;SDS011;11070;51.336;12.340;2023-05-13T05:07:24;15.50;;;14.00;;
2061;SDS011;11070;51.336;12.340;2023-05-13T05:09:50;15.77;;;14.17;;
2061;SDS011;11070;51.336;12.340;2023-05-13T05:12:16;16.57;;;14.40;;
2061;SDS011;11070;51.336;12.340;2023-05-13T05:14:42;15.25;;;13.63;;
2061;SDS011;11070;51.336;12.340;2023-05-13T05:17:08;15.20;;;13.80;;
2061;SDS011;11070;51.336;12.340;2023-05-13T05:19:33;14.77;;;13.37;;
2061;SDS011;11070;51.336;12.340;2023-05-13T05:21:59;16.30;;;14.70;;
2061;SDS011;11070;51.336;12.340;2023-05-13T05:24:25;16.13;;;14.10;;
2061;SDS011;11070;51.336;12.340;2023-05-13T05:26:50;16.03;;;14.43;;
2061;SDS011;11070;51.336;12.340;2023-05-13T05:29:16;14.63;;;13.30;;
2061;SDS011;11070;51.336;12.340;2023-05-13T05:31:42;19.40;;;13.57;;
2061;SDS011;11070;51.336;12.340;2023-05-13T05:34:08;15.60;;;14.02;;
2061;SDS011;11070;51.336;12.340;2023-05-13T05:36:34;14.33;;;13.00;;
2061;SDS011;11070;51.336;12.340;2023-05-13T05:38:59;14.53;;;13.03;;
2061;SDS011;11070;51.336;12.340;2023-05-13T05:41:25;14.60;;;13.30;;
2061;SDS011;11070;51.336;12.340;2023-05-13T05:43:50;14.00;;;12.60;;
2061;SDS011;11070;51.336;12.340;2023-05-13T05:46:16;13.13;;;11.67;;
2061;SDS011;11070;51.336;12.340;2023-05-13T05:48:42;12.53;;;11.33;;
2061;SDS011;11070;51.336;12.340;2023-05-13T05:51:07;13.60;;;12.30;;
2061;SDS011;11070;51.336;12.340;2023-05-13T05:53:34;13.67;;;12.17;;
2061;SDS011;11070;51.336;12.340;2023-05-13T05:56:01;13.25;;;11.95;;
2061;SDS011;11070;51.336;12.340;2023-05-13T05:58:28;13.68;;;12.10;;
2061;SDS011;11070;51.336;12.340;2023-05-13T06:00:53;14.10;;;12.73;;
2061;SDS011;11070;51.336;12.340;2023-05-13T06:03:20;13.38;;;12.02;;
2061;SDS011;11070;51.336;12.340;2023-05-13T06:05:46;12.80;;;11.43;;
2061;SDS011;11070;51.336;12.340;2023-05-13T06:08:12;12.33;;;10.50;;
2061;SDS011;11070;51.336;12.340;2023-05-13T06:10:38;13.53;;;11.10;;
2061;SDS011;11070;51.336;12.340;2023-05-13T06:13:03;11.73;;;10.53;;
2061;SDS011;11070;51.336;12.340;2023-05-13T06:15:29;11.93;;;10.80;;
2061;SDS011;11070;51.336;12.340;2023-05-13T06:17:55;11.33;;;10.30;;
2061;SDS011;11070;51.336;12.340;2023-05-13T06:20:21;11.23;;;10.23;;
2061;SDS011;11070;51.336;12.340;2023-05-13T06:22:47;10.90;;;9.90;;
2061;SDS011;11070;51.336;12.340;2023-05-13T06:25:13;10.23;;;9.37;;
2061;SDS011;11070;51.336;12.340;2023-05-13T06:27:39;10.27;;;9.17;;
2061;SDS011;11070;51.336;12.340;2023-05-13T06:30:04;11.40;;;10.17;;
2061;SDS011;11070;51.336;12.340;2023-05-13T06:32:30;9.50;;;8.35;;
2061;SDS011;11070;51.336;12.340;2023-05-13T06:34:56;8.93;;;8.13;;
2061;SDS011;11070;51.336;12.340;2023-05-13T06:37:22;9.87;;;9.07;;
2061;SDS011;11070;51.336;12.340;2023-05-13T06:39:47;10.80;;;9.70;;
2061;SDS011;11070;51.336;12.340;2023-05-13T06:42:13;10.97;;;9.97;;
2061;SDS011;11070;51.336;12.340;2023-05-13T06:44:39;10.47;;;9.50;;
2061;SDS011;11070;51.336;12.340;2023-05-13T06:47:05;8.63;;;7.83;;
2061;SDS011;11070;51.336;12.340;2023-05-13T06:49:33;11.30;;;10.30;;
2061;SDS011;11070;51.336;12.340;2023-05-13T06:51:59;11.55;;;10.50;;
2061;SDS011;11070;51.336;12.340;2023-05-13T06:54:25;10.60;;;9.70;;
2061;SDS011;11070;51.336;12.340;2023-05-13T06:56:51;11.52;;;9.60;;
2061;SDS011;11070;51.336;12.340;2023-05-13T06:59:17;9.05;;;8.25;;
2061;SDS011;11070;51.336;12.340;2023-05-13T07:01:45;13.02;;;8.93;;
2061;SDS011;11070;51.336;12.340;2023-05-13T07:04:11;8.50;;;7.80;;
2061;SDS011;11070;51.336;12.340;2023-05-13T07:06:36;8.20;;;7.40;;
2061;SDS011;11070;51.336;12.340;2023-05-13T07:09:02;10.57;;;7.30;;
2061;SDS011;11070;51.336;12.340;2023-05-13T07:11:28;7.77;;;7.07;;
2061;SDS011;11070;51.336;12.340;2023-05-13T07:13:54;8.13;;;6.30;;
2061;SDS011;11070;51.336;12.340;2023-05-13T07:16:20;7.73;;;6.27;;
2061;SDS011;11070;51.336;12.340;2023-05-13T07:18:45;7.10;;;6.60;;
2061;SDS011;11070;51.336;12.340;2023-05-13T07:21:12;7.33;;;6.73;;
2061;SDS011;11070;51.336;12.340;2023-05-13T07:23:39;6.18;;;5.55;;
2061;SDS011;11070;51.336;12.340;2023-05-13T07:26:04;5.23;;;4.83;;
2061;SDS011;11070;51.336;12.340;2023-05-13T07:28:30;5.27;;;4.97;;
2061;SDS011;11070;51.336;12.340;2023-05-13T07:30:56;5.20;;;4.80;;
2061;SDS011;11070;51.336;12.340;2023-05-13T07:33:22;5.60;;;5.20;;
2061;SDS011;11070;51.336;12.340;2023-05-13T07:35:48;5.50;;;5.00;;
2061;SDS011;11070;51.336;12.340;2023-05-13T07:38:14;4.87;;;4.47;;
2061;SDS011;11070;51.336;12.340;2023-05-13T07:40:39;4.37;;;4.07;;
2061;SDS011;11070;51.336;12.340;2023-05-13T07:43:05;6.63;;;4.80;;
2061;SDS011;11070;51.336;12.340;2023-05-13T07:45:31;4.80;;;4.50;;
2061;SDS011;11070;51.336;12.340;2023-05-13T07:47:57;5.23;;;4.90;;
2061;SDS011;11070;51.336;12.340;2023-05-13T07:50:22;5.90;;;5.50;;
2061;SDS011;11070;51.336;12.340;2023-05-13T07:52:48;5.33;;;4.93;;
2061;SDS011;11070;51.336;12.340;2023-05-13T07:55:15;5.28;;;4.88;;
2061;SDS011;11070;51.336;12.340;2023-05-13T07:57:42;6.00;;;5.17;;
2061;SDS011;11070;51.336;12.340;2023-05-13T08:00:08;5.50;;;5.00;;
2061;SDS011;11070;51.336;12.340;2023-05-13T08:02:35;7.00;;;5.25;;
2061;SDS011;11070;51.336;12.340;2023-05-13T08:05:02;5.00;;;4.60;;
2061;SDS011;11070;51.336;12.340;2023-05-13T08:07:28;5.40;;;5.00;;
2061;SDS011;11070;51.336;12.340;2023-05-13T08:09:54;5.07;;;4.67;;
2061;SDS011;11070;51.336;12.340;2023-05-13T08:12:20;5.60;;;5.20;;
2061;SDS011;11070;51.336;12.340;2023-05-13T08:14:46;5.40;;;5.00;;
2061;SDS011;11070;51.336;12.340;2023-05-13T08:17:11;5.70;;;5.20;;
2061;SDS011;11070;51.336;12.340;2023-05-13T08:19:37;6.33;;;5.83;;
2061;SDS011;11070;51.336;12.340;2023-05-13T08:22:04;5.45;;;5.00;;
2061;SDS011;11070;51.336;12.340;2023-05-13T08:24:30;7.10;;;5.80;;
2061;SDS011;11070;51.336;12.340;2023-05-13T08:26:55;6.33;;;5.83;;
2061;SDS011;11070;51.336;12.340;2023-05-13T08:29:21;6.50;;;6.00;;
2061;SDS011;11070;51.336;12.340;2023-05-13T08:31:47;6.60;;;6.00;;
2061;SDS011;11070;51.336;12.340;2023-05-13T08:34:12;6.57;;;6.03;;
2061;SDS011;11070;51.336;12.340;2023-05-13T08:36:38;6.18;;;5.68;;
2061;SDS011;11070;51.336;12.340;2023-05-13T08:39:04;6.07;;;5.47;;
2061;SDS011;11070;51.336;12.340;2023-05-13T08:41:33;5.30;;;4.90;;
2061;SDS011;11070;51.336;12.340;2023-05-13T08:43:59;5.83;;;5.13;;
2061;SDS011;11070;51.336;12.340;2023-05-13T08:46:28;5.60;;;5.13;;
2061;SDS011;11070;51.336;12.340;2023-05-13T08:48:58;5.70;;;5.20;;
2061;SDS011;11070;51.336;12.340;2023-05-13T08:51:24;5.40;;;5.00;;
2061;SDS011;11070;51.336;12.340;2023-05-13T08:53:50;5.77;;;5.37;;
2061;SDS011;11070;51.336;12.340;2023-05-13T08:56:17;5.67;;;5.27;;
2061;SDS011;11070;51.336;12.340;2023-05-13T08:58:43;5.60;;;5.20;;
2061;SDS011;11070;51.336;12.340;2023-05-13T09:01:08;5.50;;;5.10;;
2061;SDS011;11070;51.336;12.340;2023-05-13T09:03:34;6.53;;;5.70;;
2061;SDS011;11070;51.336;12.340;2023-05-13T09:06:10;5.93;;;5.33;;
2061;SDS011;11070;51.336;12.340;2023-05-13T09:08:36;6.03;;;5.53;;
2061;SDS011;11070;51.336;12.340;2023-05-13T09:11:01;6.37;;;5.87;;
2061;SDS011;11070;51.336;12.340;2023-05-13T09:13:27;6.20;;;5.70;;
2061;SDS011;11070;51.336;12.340;2023-05-13T09:15:53;5.90;;;5.40;;
2061;SDS011;11070;51.336;12.340;2023-05-13T09:18:19;6.10;;;5.50;;
2061;SDS011;11070;51.336;12.340;2023-05-13T09:20:44;6.27;;;5.57;;
2061;SDS011;11070;51.336;12.340;2023-05-13T09:23:11;5.90;;;5.40;;
2061;SDS011;11070;51.336;12.340;2023-05-13T09:25:37;6.10;;;5.60;;
2061;SDS011;11070;51.336;12.340;2023-05-13T09:28:04;5.50;;;5.07;;
2061;SDS011;11070;51.336;12.340;2023-05-13T09:33:11;5.93;;;5.10;;
2061;SDS011;11070;51.336;12.340;2023-05-13T09:35:44;5.40;;;4.90;;
2061;SDS011;11070;51.336;12.340;2023-05-13T09:38:15;7.27;;;5.20;;
2061;SDS011;11070;51.336;12.340;2023-05-13T09:40:49;6.03;;;5.07;;
2061;SDS011;11070;51.336;12.340;2023-05-13T09:43:20;5.27;;;4.90;;
2061;SDS011;11070;51.336;12.340;2023-05-13T09:45:51;5.10;;;4.77;;
2061;SDS011;11070;51.336;12.340;2023-05-13T09:48:19;5.30;;;4.90;;
2061;SDS011;11070;51.336;12.340;2023-05-13T09:50:47;6.50;;;5.90;;
2061;SDS011;11070;51.336;12.340;2023-05-13T09:53:14;5.77;;;5.37;;
2061;SDS011;11070;51.336;12.340;2023-05-13T09:55:47;5.43;;;5.03;;
2061;SDS011;11070;51.336;12.340;2023-05-13T09:58:14;6.80;;;5.23;;
2061;SDS011;11070;51.336;12.340;2023-05-13T10:00:40;7.37;;;5.37;;
2061;SDS011;11070;51.336;12.340;2023-05-13T10:03:07;5.90;;;5.30;;
2061;SDS011;11070;51.336;12.340;2023-05-13T10:05:33;5.83;;;5.43;;
2061;SDS011;11070;51.336;12.340;2023-05-13T10:08:00;5.47;;;5.00;;
2061;SDS011;11070;51.336;12.340;2023-05-13T10:10:27;5.70;;;5.30;;
2061;SDS011;11070;51.336;12.340;2023-05-13T10:12:55;5.40;;;5.00;;
2061;SDS011;11070;51.336;12.340;2023-05-13T10:15:24;6.30;;;5.80;;
2061;SDS011;11070;51.336;12.340;2023-05-13T10:17:50;5.53;;;5.13;;
2061;SDS011;11070;51.336;12.340;2023-05-13T10:20:16;6.07;;;5.57;;
2061;SDS011;11070;51.336;12.340;2023-05-13T10:22:43;5.30;;;5.00;;
2061;SDS011;11070;51.336;12.340;2023-05-13T10:25:09;5.80;;;5.40;;
2061;SDS011;11070;51.336;12.340;2023-05-13T10:27:35;5.63;;;5.23;;
2061;SDS011;11070;51.336;12.340;2023-05-13T10:30:03;5.47;;;4.97;;
2061;SDS011;11070;51.336;12.340;2023-05-13T10:32:34;8.07;;;5.63;;
2061;SDS011;11070;51.336;12.340;2023-05-13T10:35:11;5.47;;;5.17;;
2061;SDS011;11070;51.336;12.340;2023-05-13T10:37:55;5.40;;;5.00;;
2061;SDS011;11070;51.336;12.340;2023-05-13T10:40:28;6.30;;;5.70;;
2061;SDS011;11070;51.336;12.340;2023-05-13T10:45:48;6.00;;;5.50;;
2061;SDS011;11070;51.336;12.340;2023-05-13T10:48:16;5.80;;;5.40;;
2061;SDS011;11070;51.336;12.340;2023-05-13T10:50:49;5.77;;;5.37;;
2061;SDS011;11070;51.336;12.340;2023-05-13T10:53:19;6.00;;;5.47;;
2061;SDS011;11070;51.336;12.340;2023-05-13T10:55:56;6.87;;;5.43;;
2061;SDS011;11070;51.336;12.340;2023-05-13T11:03:40;6.10;;;5.50;;
2061;SDS011;11070;51.336;12.340;2023-05-13T11:08:40;6.10;;;5.60;;
2061;SDS011;11070;51.336;12.340;2023-05-13T11:13:43;5.50;;;5.10;;
2061;SDS011;11070;51.336;12.340;2023-05-13T11:16:10;6.70;;;5.13;;
2061;SDS011;11070;51.336;12.340;2023-05-13T11:18:38;5.57;;;5.17;;
2061;SDS011;11070;51.336;12.340;2023-05-13T11:21:04;5.80;;;5.30;;
2061;SDS011;11070;51.336;12.340;2023-05-13T11:23:32;6.03;;;5.43;;
2061;SDS011;11070;51.336;12.340;2023-05-13T11:31:23;5.77;;;4.90;;
2061;SDS011;11070;51.336;12.340;2023-05-13T11:34:09;5.53;;;5.03;;
2061;SDS011;11070;51.336;12.340;2023-05-13T11:36:40;5.10;;;4.70;;
2061;SDS011;11070;51.336;12.340;2023-05-13T11:39:25;5.70;;;5.20;;
2061;SDS011;11070;51.336;12.340;2023-05-13T11:41:51;5.80;;;5.20;;
2061;SDS011;11070;51.336;12.340;2023-05-13T11:44:20;4.90;;;4.40;;
2061;SDS011;11070;51.336;12.340;2023-05-13T11:49:34;6.00;;;5.50;;
2061;SDS011;11070;51.336;12.340;2023-05-13T11:52:07;5.97;;;5.37;;
2061;SDS011;11070;51.336;12.340;2023-05-13T11:54:41;5.33;;;4.83;;
2061;SDS011;11070;51.336;12.340;2023-05-13T12:02:29;4.90;;;4.60;;
2061;SDS011;11070;51.336;12.340;2023-05-13T12:05:01;5.00;;;4.70;;
2061;SDS011;11070;51.336;12.340;2023-05-13T12:07:29;4.17;;;3.97;;
2061;SDS011;11070;51.336;12.340;2023-05-13T12:09:56;5.17;;;4.87;;
2061;SDS011;11070;51.336;12.340;2023-05-13T12:12:23;5.43;;;5.07;;
2061;SDS011;11070;51.336;12.340;2023-05-13T12:14:49;4.73;;;4.43;;
2061;SDS011;11070;51.336;12.340;2023-05-13T12:17:16;5.30;;;4.73;;
2061;SDS011;11070;51.336;12.340;2023-05-13T12:22:36;5.63;;;4.50;;
2061;SDS011;11070;51.336;12.340;2023-05-13T12:33:31;5.17;;;4.77;;
2061;SDS011;11070;51.336;12.340;2023-05-13T12:38:39;5.00;;;4.70;;
2061;SDS011;11070;51.336;12.340;2023-05-13T12:41:10;5.03;;;4.50;;
2061;SDS011;11070;51.336;12.340;2023-05-13T12:43:39;4.43;;;4.03;;
2061;SDS011;11070;51.336;12.340;2023-05-13T12:46:05;4.50;;;4.20;;
2061;SDS011;11070;51.336;12.340;2023-05-13T12:48:31;4.87;;;4.47;;
2061;SDS011;11070;51.336;12.340;2023-05-13T12:50:57;6.57;;;4.60;;
2061;SDS011;11070;51.336;12.340;2023-05-13T12:53:23;4.40;;;4.07;;
2061;SDS011;11070;51.336;12.340;2023-05-13T12:55:49;4.60;;;4.27;;
2061;SDS011;11070;51.336;12.340;2023-05-13T12:58:15;4.30;;;3.97;;
2061;SDS011;11070;51.336;12.340;2023-05-13T13:00:40;4.60;;;4.30;;
2061;SDS011;11070;51.336;12.340;2023-05-13T13:03:06;4.50;;;4.20;;
2061;SDS011;11070;51.336;12.340;2023-05-13T13:05:32;4.70;;;4.30;;
2061;SDS011;11070;51.336;12.340;2023-05-13T13:07:58;4.87;;;4.47;;
2061;SDS011;11070;51.336;12.340;2023-05-13T13:10:25;4.90;;;4.50;;
2061;SDS011;11070;51.336;12.340;2023-05-13T13:12:52;4.90;;;4.50;;
2061;SDS011;11070;51.336;12.340;2023-05-13T13:15:18;4.60;;;4.40;;
2061;SDS011;11070;51.336;12.340;2023-05-13T13:17:43;4.57;;;4.27;;
2061;SDS011;11070;51.336;12.340;2023-05-13T13:20:09;5.30;;;4.80;;
2061;SDS011;11070;51.336;12.340;2023-05-13T13:22:36;5.37;;;4.97;;
2061;SDS011;11070;51.336;12.340;2023-05-13T13:25:05;5.07;;;4.67;;
2061;SDS011;11070;51.336;12.340;2023-05-13T13:27:31;7.10;;;4.80;;
2061;SDS011;11070;51.336;12.340;2023-05-13T13:29:58;5.83;;;5.30;;
2061;SDS011;11070;51.336;12.340;2023-05-13T13:32:24;5.85;;;5.10;;
2061;SDS011;11070;51.336;12.340;2023-05-13T13:34:50;5.53;;;5.13;;
2061;SDS011;11070;51.336;12.340;2023-05-13T13:37:16;5.50;;;5.00;;
2061;SDS011;11070;51.336;12.340;2023-05-13T13:39:41;5.30;;;4.90;;
2061;SDS011;11070;51.336;12.340;2023-05-13T13:42:07;6.03;;;5.50;;
2061;SDS011;11070;51.336;12.340;2023-05-13T13:44:33;5.97;;;5.37;;
2061;SDS011;11070;51.336;12.340;2023-05-13T13:47:00;5.70;;;5.20;;
2061;SDS011;11070;51.336;12.340;2023-05-13T13:49:26;7.17;;;4.93;;
2061;SDS011;11070;51.336;12.340;2023-05-13T13:51:52;5.23;;;4.73;;
2061;SDS011;11070;51.336;12.340;2023-05-13T13:54:17;5.80;;;4.77;;
2061;SDS011;11070;51.336;12.340;2023-05-13T13:56:43;5.00;;;4.70;;
2061;SDS011;11070;51.336;12.340;2023-05-13T13:59:09;5.50;;;5.10;;
2061;SDS011;11070;51.336;12.340;2023-05-13T14:01:35;5.83;;;5.33;;
2061;SDS011;11070;51.336;12.340;2023-05-13T14:04:11;5.50;;;5.00;;
2061;SDS011;11070;51.336;12.340;2023-05-13T14:06:38;5.13;;;4.83;;
2061;SDS011;11070;51.336;12.340;2023-05-13T14:09:04;5.03;;;4.73;;
2061;SDS011;11070;51.336;12.340;2023-05-13T14:11:30;5.23;;;4.73;;
2061;SDS011;11070;51.336;12.340;2023-05-13T14:13:55;5.10;;;4.80;;
2061;SDS011;11070;51.336;12.340;2023-05-13T14:16:22;4.57;;;4.27;;
2061;SDS011;11070;51.336;12.340;2023-05-13T14:18:48;3.90;;;3.70;;
2061;SDS011;11070;51.336;12.340;2023-05-13T14:21:16;5.78;;;3.92;;
2061;SDS011;11070;51.336;12.340;2023-05-13T14:23:42;4.80;;;4.40;;
2061;SDS011;11070;51.336;12.340;2023-05-13T14:26:08;3.90;;;3.57;;
2061;SDS011;11070;51.336;12.340;2023-05-13T14:28:34;5.75;;;4.30;;
2061;SDS011;11070;51.336;12.340;2023-05-13T14:31:00;4.17;;;3.87;;
2061;SDS011;11070;51.336;12.340;2023-05-13T14:33:26;4.50;;;4.20;;
2061;SDS011;11070;51.336;12.340;2023-05-13T14:35:52;4.70;;;4.30;;
2061;SDS011;11070;51.336;12.340;2023-05-13T14:38:17;4.20;;;4.00;;
2061;SDS011;11070;51.336;12.340;2023-05-13T14:40:43;5.40;;;4.90;;
2061;SDS011;11070;51.336;12.340;2023-05-13T14:43:09;7.47;;;5.13;;
2061;SDS011;11070;51.336;12.340;2023-05-13T14:45:35;5.33;;;4.80;;
2061;SDS011;11070;51.336;12.340;2023-05-13T14:48:01;6.70;;;5.10;;
2061;SDS011;11070;51.336;12.340;2023-05-13T14:50:26;5.00;;;4.70;;
2061;SDS011;11070;51.336;12.340;2023-05-13T14:52:52;5.40;;;5.00;;
2061;SDS011;11070;51.336;12.340;2023-05-13T14:55:17;4.67;;;4.37;;
2061;SDS011;11070;51.336;12.340;2023-05-13T14:57:43;5.13;;;4.30;;
2061;SDS011;11070;51.336;12.340;2023-05-13T15:00:09;5.10;;;4.60;;
2061;SDS011;11070;51.336;12.340;2023-05-13T15:02:35;4.60;;;4.10;;
2061;SDS011;11070;51.336;12.340;2023-05-13T15:05:01;4.50;;;4.10;;
2061;SDS011;11070;51.336;12.340;2023-05-13T15:07:27;4.33;;;4.13;;
2061;SDS011;11070;51.336;12.340;2023-05-13T15:09:53;4.43;;;4.17;;
2061;SDS011;11070;51.336;12.340;2023-05-13T15:12:19;4.63;;;4.23;;
2061;SDS011;11070;51.336;12.340;2023-05-13T15:14:55;4.60;;;4.30;;
2061;SDS011;11070;51.336;12.340;2023-05-13T15:17:22;4.40;;;4.03;;
2061;SDS011;11070;51.336;12.340;2023-05-13T15:19:48;4.80;;;4.40;;
2061;SDS011;11070;51.336;12.340;2023-05-13T15:22:13;4.63;;;4.30;;